createdAt,value
2016-12-22T00:00:50.611Z,1.02
2016-12-22T00:01:50.594Z,1.16
2016-12-22T00:02:50.580Z,1
2016-12-22T00:03:50.567Z,1.25
2016-12-22T00:04:50.547Z,1.08
2016-12-22T00:05:50.538Z,0.99
2016-12-22T00:06:50.516Z,1.02
2016-12-22T00:07:50.505Z,0.98
2016-12-22T00:08:50.487Z,0.95
2016-12-22T00:09:50.474Z,0.93
2016-12-22T00:10:50.455Z,0.92
2016-12-22T00:11:50.443Z,1.02
2016-12-22T00:12:50.433Z,1.08
2016-12-22T00:13:50.412Z,1.06
2016-12-22T00:14:50.396Z,1.04
2016-12-22T00:15:50.387Z,1.07
2016-12-22T00:16:50.370Z,0.92
2016-12-22T00:17:50.353Z,0.84
2016-12-22T00:18:50.341Z,0.74
2016-12-22T00:19:50.626Z,0.75
2016-12-22T00:20:50.307Z,0.9
2016-12-22T00:21:50.291Z,0.89
2016-12-22T00:22:50.279Z,0.96
2016-12-22T00:23:50.262Z,1
2016-12-22T00:24:50.251Z,0.88
2016-12-22T00:25:50.231Z,0.98
2016-12-22T00:26:50.219Z,1.18
2016-12-22T00:27:50.204Z,1.16
2016-12-22T00:28:50.190Z,1.13
2016-12-22T00:29:50.173Z,1.14
2016-12-22T00:30:50.156Z,1.18
2016-12-22T00:31:50.149Z,1
2016-12-22T00:32:50.136Z,1.06
2016-12-22T00:33:50.111Z,1.08
2016-12-22T00:34:50.102Z,0.96
2016-12-22T00:35:50.083Z,0.92
2016-12-22T00:36:50.064Z,1.1
2016-12-22T00:37:50.054Z,1.11
2016-12-22T00:38:50.039Z,1.14
2016-12-22T00:39:50.020Z,1.13
2016-12-22T00:40:50.011Z,1.07
2016-12-22T00:41:49.989Z,1.16
2016-12-22T00:42:49.975Z,1.08
2016-12-22T00:43:49.962Z,1.18
2016-12-22T00:44:49.945Z,1.21
2016-12-22T00:45:49.933Z,1.21
2016-12-22T00:46:49.914Z,1.1
2016-12-22T00:47:49.898Z,1.17
2016-12-22T00:48:49.887Z,1.07
2016-12-22T00:49:49.864Z,1.1
2016-12-22T00:50:49.857Z,1.07
2016-12-22T00:51:49.836Z,1.08
2016-12-22T00:52:49.824Z,0.98
2016-12-22T00:53:49.804Z,0.96
2016-12-22T00:54:49.791Z,1.02
2016-12-22T00:55:49.777Z,1.16
2016-12-22T00:56:49.762Z,1.2
2016-12-22T00:57:49.740Z,1.06
2016-12-22T00:58:49.730Z,1.17
2016-12-22T00:59:49.711Z,1.2
2016-12-22T01:00:49.697Z,1.28
2016-12-22T01:01:49.681Z,1.26
2016-12-22T01:02:49.664Z,1.07
2016-12-22T01:03:49.650Z,1.24
2016-12-22T01:04:49.638Z,1.25
2016-12-22T01:05:49.922Z,1.38
2016-12-22T01:06:49.606Z,1.42
2016-12-22T01:07:49.911Z,1.46
2016-12-22T01:08:49.573Z,1.38
2016-12-22T01:09:49.555Z,1.31
2016-12-22T01:10:49.542Z,1.32
2016-12-22T01:11:49.530Z,1.39
2016-12-22T01:12:49.514Z,1.39
2016-12-22T01:13:49.499Z,1.29
2016-12-22T01:14:49.484Z,1.2
2016-12-22T01:15:49.465Z,1.21
2016-12-22T01:16:49.450Z,1.2
2016-12-22T01:17:49.436Z,1.26
2016-12-22T01:18:49.422Z,1.43
2016-12-22T01:19:49.406Z,1.47
2016-12-22T01:20:49.413Z,1.57
2016-12-22T01:21:49.376Z,1.67
2016-12-22T01:22:49.366Z,1.64
2016-12-22T01:23:49.345Z,1.64
2016-12-22T01:24:49.332Z,1.64
2016-12-22T01:25:49.314Z,1.47
2016-12-22T01:26:49.305Z,1.5
2016-12-22T01:27:49.287Z,1.61
2016-12-22T01:28:49.268Z,1.6
2016-12-22T01:29:49.257Z,1.44
2016-12-22T01:30:49.240Z,1.5
2016-12-22T01:31:49.226Z,1.47
2016-12-22T01:32:49.214Z,1.32
2016-12-22T01:33:49.196Z,1.29
2016-12-22T01:34:49.179Z,1.46
2016-12-22T01:35:49.162Z,1.44
2016-12-22T01:36:49.149Z,1.46
2016-12-22T01:37:49.133Z,1.43
2016-12-22T01:38:49.120Z,1.44
2016-12-22T01:39:49.108Z,1.39
2016-12-22T01:40:49.087Z,1.34
2016-12-22T01:41:49.072Z,1.56
2016-12-22T01:42:49.057Z,1.63
2016-12-22T01:43:49.045Z,1.46
2016-12-22T01:44:49.026Z,1.43
2016-12-22T01:45:49.008Z,1.44
2016-12-22T01:46:49.000Z,1.52
2016-12-22T01:47:48.983Z,1.49
2016-12-22T01:48:49.276Z,1.46
2016-12-22T01:49:48.958Z,1.64
2016-12-22T01:50:48.933Z,1.64
2016-12-22T01:51:48.927Z,1.57
2016-12-22T01:52:48.904Z,1.47
2016-12-22T01:53:48.893Z,1.5
2016-12-22T01:54:48.871Z,1.57
2016-12-22T01:55:48.866Z,1.63
2016-12-22T01:56:48.847Z,1.7
2016-12-22T01:57:48.830Z,1.65
2016-12-22T01:58:48.821Z,1.79
2016-12-22T01:59:48.809Z,1.79
2016-12-22T02:00:48.790Z,1.65
2016-12-22T02:01:48.785Z,1.71
2016-12-22T02:02:48.757Z,1.64
2016-12-22T02:03:48.743Z,1.6
2016-12-22T02:04:48.728Z,1.57
2016-12-22T02:05:48.710Z,1.7
2016-12-22T02:06:48.703Z,1.67
2016-12-22T02:07:48.681Z,1.67
2016-12-22T02:08:48.672Z,1.56
2016-12-22T02:09:48.651Z,1.39
2016-12-22T02:10:48.634Z,1.47
2016-12-22T02:11:48.620Z,1.49
2016-12-22T02:12:48.607Z,1.61
2016-12-22T02:13:48.597Z,1.63
2016-12-22T02:14:48.571Z,1.53
2016-12-22T02:15:48.557Z,1.39
2016-12-22T02:16:48.542Z,1.21
2016-12-22T02:17:48.527Z,1.1
2016-12-22T02:18:48.514Z,1.18
2016-12-22T02:19:48.503Z,1.13
2016-12-22T02:20:48.484Z,1.21
2016-12-22T02:21:48.466Z,1.13
2016-12-22T02:22:48.458Z,1.16
2016-12-22T02:23:48.436Z,1.14
2016-12-22T02:24:48.420Z,1.11
2016-12-22T02:25:48.407Z,1.06
2016-12-22T02:26:48.388Z,1.08
2016-12-22T02:27:48.373Z,1.07
2016-12-22T02:28:48.358Z,1.17
2016-12-22T02:29:48.348Z,1.17
2016-12-22T02:30:48.331Z,1.16
2016-12-22T02:31:48.311Z,1.2
2016-12-22T02:32:48.294Z,1.18
2016-12-22T02:33:48.279Z,1.34
2016-12-22T02:34:48.263Z,1.31
2016-12-22T02:35:48.246Z,1.24
2016-12-22T02:36:48.230Z,1.21
2016-12-22T02:37:48.218Z,1.14
2016-12-22T02:38:48.199Z,1.17
2016-12-22T02:39:48.187Z,1.2
2016-12-22T02:40:48.169Z,1.1
2016-12-22T02:41:48.153Z,1.16
2016-12-22T02:42:48.136Z,1.21
2016-12-22T02:43:48.121Z,1.14
2016-12-22T02:44:48.207Z,1.06
2016-12-22T02:45:48.091Z,1.18
2016-12-22T02:46:48.075Z,1.11
2016-12-22T02:47:48.062Z,1.21
2016-12-22T02:48:48.040Z,1.11
2016-12-22T02:49:48.028Z,1.18
2016-12-22T02:50:48.008Z,1.14
2016-12-22T02:51:47.992Z,1.14
2016-12-22T02:52:47.977Z,1.08
2016-12-22T02:53:47.962Z,1.07
2016-12-22T02:54:47.994Z,1.13
2016-12-22T02:55:47.929Z,1.13
2016-12-22T02:56:47.915Z,1.24
2016-12-22T02:57:47.897Z,1.17
2016-12-22T02:58:47.877Z,1.08
2016-12-22T02:59:47.868Z,1.16
2016-12-22T03:00:47.850Z,1.17
2016-12-22T03:01:47.831Z,1.11
2016-12-22T03:02:47.817Z,1.11
2016-12-22T03:03:47.804Z,1.13
2016-12-22T03:04:47.786Z,1.1
2016-12-22T03:05:47.769Z,1.1
2016-12-22T03:06:47.750Z,1.11
2016-12-22T03:07:47.735Z,1.1
2016-12-22T03:08:47.720Z,1.1
2016-12-22T03:09:47.701Z,1.1
2016-12-22T03:10:47.689Z,1.13
2016-12-22T03:11:47.676Z,1.18
2016-12-22T03:12:47.657Z,1.29
2016-12-22T03:13:47.644Z,1.43
2016-12-22T03:14:47.634Z,1.43
2016-12-22T03:15:47.609Z,1.67
2016-12-22T03:16:47.591Z,1.65
2016-12-22T03:17:47.573Z,1.65
2016-12-22T03:18:47.560Z,1.56
2016-12-22T03:19:47.544Z,1.47
2016-12-22T03:20:47.536Z,1.47
2016-12-22T03:21:47.519Z,1.54
2016-12-22T03:22:47.497Z,1.63
2016-12-22T03:23:47.482Z,1.65
2016-12-22T03:24:47.468Z,1.47
2016-12-22T03:25:47.456Z,1.46
2016-12-22T03:26:47.434Z,1.31
2016-12-22T03:27:47.420Z,1.29
2016-12-22T03:28:47.406Z,1.25
2016-12-22T03:29:47.389Z,1.29
2016-12-22T03:30:47.378Z,1.35
2016-12-22T03:31:47.356Z,1.47
2016-12-22T03:32:47.346Z,1.47
2016-12-22T03:33:47.328Z,1.42
2016-12-22T03:34:47.315Z,1.42
2016-12-22T03:35:47.302Z,1.46
2016-12-22T03:36:47.283Z,1.43
2016-12-22T03:37:47.274Z,1.29
2016-12-22T03:38:47.253Z,1.31
2016-12-22T03:39:47.240Z,1.35
2016-12-22T03:40:47.220Z,1.32
2016-12-22T03:41:47.510Z,1.28
2016-12-22T03:42:47.190Z,1.29
2016-12-22T03:43:47.178Z,1.39
2016-12-22T03:44:47.157Z,1.38
2016-12-22T03:45:47.142Z,1.38
2016-12-22T03:46:47.129Z,1.28
2016-12-22T03:47:47.117Z,1.36
2016-12-22T03:48:47.103Z,1.5
2016-12-22T03:49:47.092Z,1.31
2016-12-22T03:50:47.071Z,1.49
2016-12-22T03:51:47.054Z,1.61
2016-12-22T03:52:47.042Z,1.57
2016-12-22T03:53:47.025Z,1.47
2016-12-22T03:54:47.011Z,1.44
2016-12-22T03:55:46.996Z,1.42
2016-12-22T03:56:46.976Z,1.26
2016-12-22T03:57:46.961Z,1.29
2016-12-22T03:58:46.951Z,1.5
2016-12-22T03:59:46.935Z,1.57
2016-12-22T04:00:46.918Z,1.65
2016-12-22T04:01:46.904Z,1.34
2016-12-22T04:02:46.892Z,1.35
2016-12-22T04:03:46.871Z,1.34
2016-12-22T04:04:46.863Z,1.1
2016-12-22T04:05:46.843Z,1.2
2016-12-22T04:06:46.826Z,1.11
2016-12-22T04:07:46.811Z,1.14
2016-12-22T04:08:46.797Z,1.11
2016-12-22T04:09:46.778Z,0.92
2016-12-22T04:10:46.764Z,0.95
2016-12-22T04:11:46.751Z,0.93
2016-12-22T04:12:46.735Z,0.77
2016-12-22T04:13:46.713Z,0.75
2016-12-22T04:14:46.702Z,0.67
2016-12-22T04:15:46.685Z,0.63
2016-12-22T04:16:46.669Z,0.62
2016-12-22T04:17:46.656Z,0.48
2016-12-22T04:18:46.634Z,0.48
2016-12-22T04:19:46.622Z,0.43
2016-12-22T04:20:46.607Z,0.38
2016-12-22T04:21:46.592Z,0.31
2016-12-22T04:22:46.575Z,0.22
2016-12-22T04:23:46.558Z,0.38
2016-12-22T04:24:46.542Z,0.43
2016-12-22T04:25:46.524Z,0.77
2016-12-22T04:26:46.510Z,0.8
2016-12-22T04:27:46.493Z,0.8
2016-12-22T04:28:46.484Z,0.81
2016-12-22T04:29:46.463Z,0.84
2016-12-22T04:30:46.443Z,0.84
2016-12-22T04:31:46.432Z,0.89
2016-12-22T04:32:46.413Z,0.9
2016-12-22T04:33:46.397Z,0.88
2016-12-22T04:34:46.383Z,0.82
2016-12-22T04:35:46.368Z,0.88
2016-12-22T04:36:46.350Z,0.88
2016-12-22T04:37:46.334Z,1.02
2016-12-22T04:38:46.323Z,1
2016-12-22T04:39:46.303Z,0.96
2016-12-22T04:40:46.288Z,1.1
2016-12-22T04:41:46.272Z,1.25
2016-12-22T04:42:46.255Z,1.17
2016-12-22T04:43:46.241Z,1.21
2016-12-22T04:44:46.223Z,1.2
2016-12-22T04:45:46.211Z,1.14
2016-12-22T04:46:46.192Z,1.13
2016-12-22T04:47:46.483Z,1.07
2016-12-22T04:48:46.157Z,1.1
2016-12-22T04:49:46.172Z,1.18
2016-12-22T04:50:46.126Z,1.08
2016-12-22T04:51:46.112Z,1.04
2016-12-22T04:52:46.093Z,0.96
2016-12-22T04:53:46.082Z,0.9
2016-12-22T04:54:46.088Z,0.92
2016-12-22T04:55:46.048Z,0.95
2016-12-22T04:56:46.032Z,0.99
2016-12-22T04:57:46.016Z,1.06
2016-12-22T04:58:46.003Z,0.95
2016-12-22T04:59:45.996Z,0.92
2016-12-22T05:00:45.969Z,0.92
2016-12-22T05:01:45.955Z,0.9
2016-12-22T05:02:45.938Z,0.95
2016-12-22T05:03:45.922Z,0.95
2016-12-22T05:04:45.905Z,0.93
2016-12-22T05:05:45.892Z,0.92
2016-12-22T05:06:45.873Z,0.93
2016-12-22T05:07:45.862Z,0.86
2016-12-22T05:08:45.838Z,0.84
2016-12-22T05:09:45.827Z,0.93
2016-12-22T05:10:45.810Z,0.9
2016-12-22T05:11:45.794Z,0.84
2016-12-22T05:12:45.780Z,0.78
2016-12-22T05:13:45.764Z,0.81
2016-12-22T05:14:45.746Z,0.81
2016-12-22T05:15:45.733Z,0.71
2016-12-22T05:16:45.717Z,0.77
2016-12-22T05:17:45.696Z,0.77
2016-12-22T05:18:45.681Z,0.67
2016-12-22T05:19:45.676Z,0.74
2016-12-22T05:20:45.653Z,0.77
2016-12-22T05:21:45.634Z,0.8
2016-12-22T05:23:00.532Z,0.86
2016-12-22T05:23:45.802Z,0.84
2016-12-22T05:24:45.584Z,0.86
2016-12-22T05:25:45.597Z,0.81
2016-12-22T05:26:45.551Z,0.95
2016-12-22T05:27:45.532Z,1.08
2016-12-22T05:28:45.521Z,1.08
2016-12-22T05:29:45.501Z,0.92
2016-12-22T05:30:45.492Z,0.9
2016-12-22T05:31:45.471Z,0.92
2016-12-22T05:32:45.456Z,0.92
2016-12-22T05:33:45.442Z,0.9
2016-12-22T05:34:45.424Z,0.96
2016-12-22T05:35:45.408Z,1.08
2016-12-22T05:36:45.392Z,1.02
2016-12-22T05:37:45.373Z,1.14
2016-12-22T05:38:45.355Z,1.04
2016-12-22T05:39:45.341Z,1.18
2016-12-22T05:40:45.324Z,1.17
2016-12-22T05:41:45.314Z,1.16
2016-12-22T05:42:45.292Z,1.17
2016-12-22T05:43:45.276Z,1.06
2016-12-22T05:44:45.262Z,1.11
2016-12-22T05:45:45.241Z,1.07
2016-12-22T05:46:45.229Z,1.11
2016-12-22T05:47:45.207Z,1.08
2016-12-22T05:48:45.194Z,1.07
2016-12-22T05:49:45.178Z,1.04
2016-12-22T05:50:45.163Z,1.11
2016-12-22T05:51:45.347Z,1.08
2016-12-22T05:52:45.321Z,1.06
2016-12-22T05:53:45.112Z,1.02
2016-12-22T05:54:45.098Z,1.13
2016-12-22T05:55:45.084Z,1.08
2016-12-22T05:56:45.064Z,1.07
2016-12-22T05:57:45.049Z,1
2016-12-22T05:58:45.039Z,0.99
2016-12-22T05:59:45.018Z,0.9
2016-12-22T06:00:45.003Z,0.84
2016-12-22T06:01:44.985Z,0.9
2016-12-22T06:02:44.967Z,0.98
2016-12-22T06:03:44.954Z,0.93
2016-12-22T06:04:44.939Z,0.92
2016-12-22T06:05:44.921Z,0.82
2016-12-22T06:06:44.906Z,0.71
2016-12-22T06:07:44.897Z,0.7
2016-12-22T06:08:44.873Z,0.7
2016-12-22T06:09:44.860Z,0.68
2016-12-22T06:10:44.842Z,0.72
2016-12-22T06:11:44.827Z,0.68
2016-12-22T06:12:44.807Z,0.71
2016-12-22T06:13:44.795Z,0.67
2016-12-22T06:14:44.782Z,0.77
2016-12-22T06:15:44.769Z,0.81
2016-12-22T06:16:44.749Z,0.71
2016-12-22T06:17:44.730Z,0.71
2016-12-22T06:18:44.717Z,0.74
2016-12-22T06:19:44.702Z,0.67
2016-12-22T06:20:44.889Z,0.59
2016-12-22T06:21:44.668Z,0.49
2016-12-22T06:22:44.652Z,0.35
2016-12-22T06:23:44.640Z,0.3
2016-12-22T06:24:44.923Z,0.28
2016-12-22T06:25:44.604Z,0.41
2016-12-22T06:26:44.594Z,0.37
2016-12-22T06:27:44.572Z,0.45
2016-12-22T06:28:44.563Z,0.62
2016-12-22T06:29:44.538Z,0.62
2016-12-22T06:30:44.526Z,0.56
2016-12-22T06:31:44.509Z,0.56
2016-12-22T06:32:44.490Z,0.48
2016-12-22T06:33:44.479Z,0.59
2016-12-22T06:34:44.457Z,0.52
2016-12-22T06:35:44.463Z,0.63
2016-12-22T06:36:44.425Z,0.64
2016-12-22T06:37:44.413Z,0.71
2016-12-22T06:38:44.392Z,0.82
2016-12-22T06:39:44.383Z,0.92
2016-12-22T06:40:44.364Z,0.93
2016-12-22T06:41:44.347Z,0.9
2016-12-22T06:42:44.331Z,0.92
2016-12-22T06:43:44.319Z,0.89
2016-12-22T06:44:44.301Z,0.93
2016-12-22T06:45:44.283Z,0.93
2016-12-22T06:46:44.267Z,0.93
2016-12-22T06:47:44.254Z,0.93
2016-12-22T06:48:44.233Z,0.92
2016-12-22T06:49:44.424Z,0.6
2016-12-22T06:50:44.202Z,0.34
2016-12-22T06:51:44.188Z,0.3
2016-12-22T06:52:44.172Z,0.12
2016-12-22T06:53:44.152Z,-0.05
2016-12-22T06:54:44.138Z,-0.08
2016-12-22T06:55:44.124Z,-0.16
2016-12-22T06:56:44.105Z,-0.16
2016-12-22T06:57:44.087Z,-0.16
2016-12-22T06:58:44.071Z,-0.19
2016-12-22T06:59:44.058Z,-0.17
2016-12-22T07:00:44.039Z,-0.17
2016-12-22T07:01:44.043Z,-0.21
2016-12-22T07:02:44.309Z,-0.35
2016-12-22T07:03:44.013Z,-0.12
2016-12-22T07:04:43.971Z,0.02
2016-12-22T07:05:43.956Z,0.13
2016-12-22T07:06:44.240Z,0.19
2016-12-22T07:07:43.922Z,0.22
2016-12-22T07:08:43.906Z,0.26
2016-12-22T07:09:43.885Z,0.25
2016-12-22T07:10:43.868Z,0.31
2016-12-22T07:11:43.851Z,0.28
2016-12-22T07:12:43.834Z,0.34
2016-12-22T07:13:43.815Z,0.37
2016-12-22T07:14:43.804Z,0.53
2016-12-22T07:15:43.783Z,0.49
2016-12-22T07:16:43.768Z,0.48
2016-12-22T07:17:43.753Z,0.49
2016-12-22T07:18:43.734Z,0.59
2016-12-22T07:19:43.749Z,0.52
2016-12-22T07:20:43.700Z,0.52
2016-12-22T07:21:43.683Z,0.59
2016-12-22T07:22:43.667Z,0.78
2016-12-22T07:23:43.652Z,0.77
2016-12-22T07:24:43.633Z,0.77
2016-12-22T07:25:43.616Z,0.78
2016-12-22T07:26:43.600Z,0.82
2016-12-22T07:27:43.589Z,0.88
2016-12-22T07:28:43.565Z,0.82
2016-12-22T07:29:43.548Z,0.82
2016-12-22T07:30:43.536Z,0.84
2016-12-22T07:31:43.519Z,0.81
2016-12-22T07:32:43.496Z,0.8
2016-12-22T07:33:43.479Z,0.82
2016-12-22T07:34:43.469Z,0.96
2016-12-22T07:35:43.449Z,1
2016-12-22T07:36:43.428Z,1.14
2016-12-22T07:37:43.417Z,1.13
2016-12-22T07:38:43.397Z,1.1
2016-12-22T07:39:43.378Z,1.16
2016-12-22T07:40:43.368Z,1.31
2016-12-22T07:41:43.661Z,1.36
2016-12-22T07:42:43.343Z,1.38
2016-12-22T07:43:43.316Z,1.44
2016-12-22T07:44:43.300Z,1.44
2016-12-22T07:45:43.281Z,1.42
2016-12-22T07:46:43.263Z,1.46
2016-12-22T07:47:43.455Z,1.46
2016-12-22T07:48:43.234Z,1.43
2016-12-22T07:49:43.220Z,1.32
2016-12-22T07:50:43.199Z,1.21
2016-12-22T07:51:43.183Z,1.24
2016-12-22T07:52:43.169Z,1.24
2016-12-22T07:53:43.151Z,1.28
2016-12-22T07:54:43.132Z,1.34
2016-12-22T07:55:43.122Z,1.39
2016-12-22T07:56:43.101Z,1.5
2016-12-22T07:57:43.085Z,1.5
2016-12-22T07:58:43.069Z,1.67
2016-12-22T07:59:43.058Z,1.71
2016-12-22T08:00:43.037Z,1.72
2016-12-22T08:01:43.022Z,1.92
2016-12-22T08:02:43.003Z,1.83
2016-12-22T08:03:42.988Z,1.82
2016-12-22T08:04:42.971Z,1.68
2016-12-22T08:05:42.955Z,1.61
2016-12-22T08:06:42.942Z,1.44
2016-12-22T08:07:42.924Z,1.28
2016-12-22T08:08:42.910Z,1.21
2016-12-22T08:09:42.888Z,1.25
2016-12-22T08:10:42.874Z,0.99
2016-12-22T08:11:42.857Z,1.17
2016-12-22T08:12:42.839Z,1.18
2016-12-22T08:13:42.826Z,1.65
2016-12-22T08:14:42.809Z,1.67
2016-12-22T08:15:42.793Z,1.82
2016-12-22T08:16:42.777Z,1.7
2016-12-22T08:17:42.759Z,1.85
2016-12-22T08:18:42.745Z,1.81
2016-12-22T08:19:42.733Z,1.86
2016-12-22T08:20:42.733Z,2.07
2016-12-22T08:21:42.695Z,2.15
2016-12-22T08:22:42.679Z,2.23
2016-12-22T08:23:42.665Z,2.38
2016-12-22T08:24:42.679Z,2.3
2016-12-22T08:25:42.635Z,2.2
2016-12-22T08:26:42.614Z,2.25
2016-12-22T08:27:42.601Z,2.41
2016-12-22T08:28:42.584Z,2.36
2016-12-22T08:29:42.569Z,2.41
2016-12-22T08:30:42.559Z,2.47
2016-12-22T08:31:42.539Z,2.55
2016-12-22T08:32:42.524Z,2.77
2016-12-22T08:33:42.508Z,2.84
2016-12-22T08:34:42.492Z,2.79
2016-12-22T08:35:42.479Z,2.77
2016-12-22T08:36:42.463Z,2.68
2016-12-22T08:37:42.443Z,2.27
2016-12-22T08:38:42.429Z,2.09
2016-12-22T08:39:42.419Z,2.29
2016-12-22T08:40:42.429Z,2.12
2016-12-22T08:41:42.383Z,2.2
2016-12-22T08:42:42.368Z,2.38
2016-12-22T08:43:42.350Z,2.07
2016-12-22T08:44:42.337Z,2
2016-12-22T08:45:42.320Z,1.92
2016-12-22T08:46:42.305Z,1.9
2016-12-22T08:47:42.287Z,2.02
2016-12-22T08:48:42.274Z,2.02
2016-12-22T08:49:42.258Z,1.95
2016-12-22T08:50:42.240Z,2.23
2016-12-22T08:51:42.225Z,2.29
2016-12-22T08:52:42.208Z,2.76
2016-12-22T08:53:42.224Z,2.89
2016-12-22T08:54:42.179Z,2.87
2016-12-22T08:55:42.160Z,3.13
2016-12-22T08:56:42.150Z,3.15
2016-12-22T08:57:42.134Z,3.05
2016-12-22T08:58:42.147Z,3.12
2016-12-22T08:59:42.101Z,3.2
2016-12-22T09:00:42.088Z,3.16
2016-12-22T09:01:42.069Z,3.2
2016-12-22T09:02:42.058Z,3.1
2016-12-22T09:03:42.041Z,2.94
2016-12-22T09:04:42.026Z,2.97
2016-12-22T09:05:42.013Z,3.07
2016-12-22T09:06:41.996Z,2.99
2016-12-22T09:07:41.981Z,3.02
2016-12-22T09:08:41.967Z,3.22
2016-12-22T09:09:41.952Z,3.46
2016-12-22T09:10:41.966Z,3.56
2016-12-22T09:11:41.922Z,3.62
2016-12-22T09:12:41.907Z,3.5
2016-12-22T09:13:41.894Z,3.56
2016-12-22T09:14:41.876Z,3.7
2016-12-22T09:15:41.860Z,3.57
2016-12-22T09:16:41.848Z,3.49
2016-12-22T09:17:42.440Z,3.53
2016-12-22T09:21:51.626Z,3.42
2016-12-22T09:22:24.119Z,3.37
2016-12-22T09:23:24.107Z,3.41
2016-12-22T09:24:24.086Z,3.23
2016-12-22T09:25:24.070Z,3.26
2016-12-22T09:26:24.058Z,3.01
2016-12-22T09:27:24.048Z,3.1
2016-12-22T09:28:24.028Z,3.26
2016-12-22T09:29:24.016Z,3.22
2016-12-22T09:30:24.001Z,3.19
2016-12-22T09:31:23.984Z,3.22
2016-12-22T09:32:23.968Z,3.23
2016-12-22T09:33:23.957Z,3.2
2016-12-22T09:34:24.248Z,3.28
2016-12-22T09:35:23.929Z,3.42
2016-12-22T09:36:23.941Z,3.28
2016-12-22T09:37:23.894Z,3.25
2016-12-22T09:38:23.879Z,3.39
2016-12-22T09:39:23.894Z,3.52
2016-12-22T09:40:23.849Z,3.41
2016-12-22T09:41:23.837Z,3.41
2016-12-22T09:42:23.820Z,3.41
2016-12-22T09:43:23.814Z,3.37
2016-12-22T09:44:23.788Z,3.41
2016-12-22T09:45:23.777Z,3.39
2016-12-22T09:46:23.758Z,3.33
2016-12-22T09:47:23.747Z,3.33
2016-12-22T09:48:23.729Z,3.23
2016-12-22T09:49:23.718Z,3.33
2016-12-22T09:50:23.705Z,3.63
2016-12-22T09:51:23.694Z,3.62
2016-12-22T09:52:23.675Z,3.7
2016-12-22T09:53:23.663Z,3.81
2016-12-22T09:54:23.640Z,3.77
2016-12-22T09:55:23.626Z,3.82
2016-12-22T09:56:23.610Z,3.82
2016-12-22T09:57:23.598Z,3.95
2016-12-22T09:58:23.583Z,4.25
2016-12-22T09:59:23.570Z,4.34
2016-12-22T10:00:23.561Z,3.95
2016-12-22T10:01:23.545Z,4.06
2016-12-22T10:02:23.529Z,4.18
2016-12-22T10:03:23.513Z,4.53
2016-12-22T10:04:23.506Z,4.35
2016-12-22T10:05:23.483Z,4.35
2016-12-22T10:06:23.468Z,4.21
2016-12-22T10:07:23.455Z,4.26
2016-12-22T10:08:23.440Z,4.28
2016-12-22T10:09:23.430Z,4.17
2016-12-22T10:10:23.417Z,4.16
2016-12-22T10:11:23.399Z,4.29
2016-12-22T10:12:23.383Z,4.17
2016-12-22T10:13:23.368Z,4.17
2016-12-22T10:14:23.360Z,4.24
2016-12-22T10:15:23.344Z,3.98
2016-12-22T10:16:23.327Z,3.81
2016-12-22T10:17:23.314Z,3.7
2016-12-22T10:18:23.299Z,3.8
2016-12-22T10:19:23.289Z,4
2016-12-22T10:20:23.324Z,3.8
2016-12-22T10:21:23.261Z,4.2
2016-12-22T10:22:23.245Z,4.28
2016-12-22T10:23:23.232Z,4.21
2016-12-22T10:24:23.215Z,4.57
2016-12-22T10:25:23.209Z,4.51
2016-12-22T10:26:23.191Z,4.43
2016-12-22T10:27:23.172Z,4.25
2016-12-22T10:28:23.161Z,4.51
2016-12-22T10:29:23.150Z,4.69
2016-12-22T10:30:23.133Z,4.51
2016-12-22T10:31:23.120Z,4.2
2016-12-22T10:32:23.107Z,4.44
2016-12-22T10:33:23.093Z,4.25
2016-12-22T10:34:23.078Z,4.53
2016-12-22T10:35:23.065Z,4.8
2016-12-22T10:36:23.053Z,4.67
2016-12-22T10:37:23.040Z,4.29
2016-12-22T10:38:23.025Z,4
2016-12-22T10:39:23.008Z,3.88
2016-12-22T10:40:22.998Z,4.21
2016-12-22T10:41:22.982Z,4.46
2016-12-22T10:42:22.968Z,5.14
2016-12-22T10:43:22.958Z,5.66
2016-12-22T10:44:22.942Z,6.02
2016-12-22T10:45:22.928Z,6.24
2016-12-22T10:46:22.922Z,6.02
2016-12-22T10:47:22.903Z,5.74
2016-12-22T10:48:22.888Z,4.97
2016-12-22T10:49:22.876Z,5.24
2016-12-22T10:50:22.865Z,5.41
2016-12-22T10:51:22.851Z,5.6
2016-12-22T10:52:22.839Z,5.66
2016-12-22T10:53:22.828Z,5.66
2016-12-22T10:54:22.813Z,5.14
2016-12-22T10:55:22.798Z,5.52
2016-12-22T10:56:22.788Z,6.01
2016-12-22T10:57:22.774Z,5.41
2016-12-22T10:58:22.758Z,5.58
2016-12-22T10:59:22.749Z,5.83
2016-12-22T11:00:22.740Z,5.47
2016-12-22T11:01:22.721Z,4.93
2016-12-22T11:02:22.708Z,5.19
2016-12-22T11:03:22.698Z,5.11
2016-12-22T11:04:22.693Z,5.3
2016-12-22T11:05:22.674Z,4.97
2016-12-22T11:06:22.663Z,5.27
2016-12-22T11:07:22.647Z,5.17
2016-12-22T11:08:22.636Z,5.66
2016-12-22T11:09:22.623Z,5.83
2016-12-22T11:10:22.610Z,5.98
2016-12-22T11:11:22.624Z,5.06
2016-12-22T11:12:22.584Z,4.57
2016-12-22T11:13:22.574Z,4.43
2016-12-22T11:14:22.562Z,4.21
2016-12-22T11:15:22.546Z,4.36
2016-12-22T11:16:22.530Z,4.64
2016-12-22T11:17:22.523Z,4.97
2016-12-22T11:18:22.505Z,4.71
2016-12-22T11:19:22.493Z,4.64
2016-12-22T11:20:22.481Z,4.88
2016-12-22T11:21:22.464Z,5.42
2016-12-22T11:22:22.458Z,5.22
2016-12-22T11:23:22.442Z,4.84
2016-12-22T11:24:22.431Z,4.28
2016-12-22T11:25:22.415Z,4.36
2016-12-22T11:26:22.400Z,4.28
2016-12-22T11:27:22.391Z,4.25
2016-12-22T11:28:22.400Z,4.54
2016-12-22T11:29:22.362Z,4.9
2016-12-22T11:30:22.351Z,5.26
2016-12-22T11:31:22.331Z,5.41
2016-12-22T11:32:22.323Z,5.41
2016-12-22T11:33:22.308Z,4.96
2016-12-22T11:34:22.326Z,5.55
2016-12-22T11:35:22.280Z,5.4
2016-12-22T11:36:22.268Z,5.32
2016-12-22T11:37:22.258Z,5.23
2016-12-22T11:38:22.251Z,4.91
2016-12-22T11:39:22.231Z,4.69
2016-12-22T11:40:22.217Z,4.46
2016-12-22T11:41:22.206Z,4.96
2016-12-22T11:42:22.194Z,5.26
2016-12-22T11:43:22.206Z,5.27
2016-12-22T11:44:22.167Z,4.84
2016-12-22T11:45:22.149Z,4.87
2016-12-22T11:46:22.141Z,4.97
2016-12-22T11:47:22.131Z,4.83
2016-12-22T11:48:22.114Z,4.67
2016-12-22T11:49:22.103Z,4.46
2016-12-22T11:50:22.088Z,4.53
2016-12-22T11:51:22.074Z,4.38
2016-12-22T11:52:22.061Z,4.86
2016-12-22T11:53:22.048Z,5.24
2016-12-22T11:54:22.036Z,5.42
2016-12-22T11:55:22.020Z,5.33
2016-12-22T11:56:22.008Z,5.47
2016-12-22T11:57:21.993Z,5.42
2016-12-22T11:58:21.981Z,5.29
2016-12-22T11:59:21.969Z,5.44
2016-12-22T12:00:21.962Z,5.51
2016-12-22T12:01:21.940Z,5.01
2016-12-22T12:02:21.929Z,4.65
2016-12-22T12:03:21.924Z,4.54
2016-12-22T12:04:21.905Z,4.87
2016-12-22T12:05:21.898Z,4.84
2016-12-22T12:06:21.881Z,4.84
2016-12-22T12:07:21.869Z,4.69
2016-12-22T12:08:21.875Z,4.74
2016-12-22T12:09:21.841Z,4.49
2016-12-22T12:10:21.826Z,4.47
2016-12-22T12:11:21.813Z,4.38
2016-12-22T12:12:21.799Z,4.21
2016-12-22T12:13:21.786Z,4.21
2016-12-22T12:14:21.777Z,4.04
2016-12-22T12:15:21.762Z,4.13
2016-12-22T12:16:21.747Z,4.21
2016-12-22T12:17:21.732Z,4.26
2016-12-22T12:18:21.721Z,4.51
2016-12-22T12:19:21.713Z,4.71
2016-12-22T12:20:21.690Z,4.8
2016-12-22T12:21:21.680Z,5.04
2016-12-22T12:22:21.663Z,5.45
2016-12-22T12:23:21.658Z,5.62
2016-12-22T12:24:21.637Z,5.81
2016-12-22T12:25:21.631Z,5.75
2016-12-22T12:26:21.619Z,6.06
2016-12-22T12:27:21.599Z,5.8
2016-12-22T12:28:21.590Z,5.44
2016-12-22T12:29:21.579Z,5.42
2016-12-22T12:30:21.565Z,5.37
2016-12-22T12:31:21.549Z,5.24
2016-12-22T12:32:21.537Z,5.87
2016-12-22T12:33:21.529Z,6.4
2016-12-22T12:34:21.509Z,6.57
2016-12-22T12:35:21.500Z,6.3
2016-12-22T12:36:21.486Z,6.54
2016-12-22T12:37:21.473Z,6.63
2016-12-22T12:38:21.462Z,6.65
2016-12-22T12:39:21.448Z,6.65
2016-12-22T12:40:21.440Z,6.6
2016-12-22T12:41:21.428Z,6.82
2016-12-22T12:42:21.415Z,6.64
2016-12-22T12:43:21.405Z,6.96
2016-12-22T12:44:21.394Z,7.08
2016-12-22T12:45:21.382Z,7.07
2016-12-22T12:46:21.368Z,6.27
2016-12-22T12:47:21.357Z,5.69
2016-12-22T12:48:21.345Z,5.4
2016-12-22T12:49:21.342Z,5.56
2016-12-22T12:50:21.644Z,5.4
2016-12-22T12:51:21.316Z,5.4
2016-12-22T12:52:21.299Z,5.45
2016-12-22T12:53:21.286Z,4.9
2016-12-22T12:54:21.278Z,4.77
2016-12-22T12:55:21.260Z,4.86
2016-12-22T12:56:21.269Z,4.79
2016-12-22T12:57:21.237Z,4.64
2016-12-22T12:58:21.226Z,4.77
2016-12-22T12:59:21.215Z,5.14
2016-12-22T13:00:21.199Z,5.47
2016-12-22T13:01:21.189Z,4.97
2016-12-22T13:02:21.175Z,5.26
2016-12-22T13:03:21.163Z,5.38
2016-12-22T13:04:21.149Z,5.59
2016-12-22T13:05:21.138Z,5.58
2016-12-22T13:06:21.125Z,5.01
2016-12-22T13:07:21.114Z,4.5
2016-12-22T13:08:21.099Z,4.26
2016-12-22T13:09:21.085Z,4.38
2016-12-22T13:10:21.072Z,4.42
2016-12-22T13:11:21.164Z,4.44
2016-12-22T13:12:21.055Z,4.54
2016-12-22T13:13:21.039Z,4.49
2016-12-22T13:14:21.024Z,4.84
2016-12-22T13:15:21.009Z,4.71
2016-12-22T13:16:20.997Z,4.91
2016-12-22T13:17:20.983Z,4.97
2016-12-22T13:18:20.972Z,4.77
2016-12-22T13:19:20.956Z,4.87
2016-12-22T13:20:20.944Z,5.37
2016-12-22T13:21:20.934Z,5.14
2016-12-22T13:22:20.930Z,5.37
2016-12-22T13:23:20.907Z,5.58
2016-12-22T13:24:20.896Z,5.44